sensor_id;sensor_type;location;lat;lon;timestamp;temperature;humidity
21744;DHT22;11034;48.556;9.342;2023-08-01T00:01:06;18.70;99.90
21744;DHT22;11034;48.556;9.342;2023-08-01T00:03:34;18.70;99.90
21744;DHT22;11034;48.556;9.342;2023-08-01T00:06:02;18.80;99.90
21744;DHT22;11034;48.556;9.342;2023-08-01T00:08:30;18.80;99.90
21744;DHT22;11034;48.556;9.342;2023-08-01T00:11:00;18.70;99.90
21744;DHT22;11034;48.556;9.342;2023-08-01T00:13:28;18.70;99.90
21744;DHT22;11034;48.556;9.342;2023-08-01T00:15:56;18.70;99.90
21744;DHT22;11034;48.556;9.342;2023-08-01T00:18:33;18.70;99.90
21744;DHT22;11034;48.556;9.342;2023-08-01T00:21:01;18.70;99.90
21744;DHT22;11034;48.556;9.342;2023-08-01T00:23:31;18.70;99.90
21744;DHT22;11034;48.556;9.342;2023-08-01T00:26:01;18.70;99.90
21744;DHT22;11034;48.556;9.342;2023-08-01T00:28:29;18.70;99.90
21744;DHT22;11034;48.556;9.342;2023-08-01T00:31:05;18.70;99.90
21744;DHT22;11034;48.556;9.342;2023-08-01T00:33:33;18.70;99.90
21744;DHT22;11034;48.556;9.342;2023-08-01T00:36:01;18.80;99.90
21744;DHT22;11034;48.556;9.342;2023-08-01T00:38:30;18.90;99.90
21744;DHT22;11034;48.556;9.342;2023-08-01T00:40:58;18.90;99.90
21744;DHT22;11034;48.556;9.342;2023-08-01T00:43:27;19.10;99.90
21744;DHT22;11034;48.556;9.342;2023-08-01T00:45:59;19.10;99.90
21744;DHT22;11034;48.556;9.342;2023-08-01T00:48:28;19.10;99.90
21744;DHT22;11034;48.556;9.342;2023-08-01T00:50:57;19.10;99.90
21744;DHT22;11034;48.556;9.342;2023-08-01T00:53:25;19.20;99.90
21744;DHT22;11034;48.556;9.342;2023-08-01T00:55:54;19.10;99.90
21744;DHT22;11034;48.556;9.342;2023-08-01T00:58:22;19.20;99.90
21744;DHT22;11034;48.556;9.342;2023-08-01T01:00:52;19.30;99.90
21744;DHT22;11034;48.556;9.342;2023-08-01T01:03:23;19.40;99.90
21744;DHT22;11034;48.556;9.342;2023-08-01T01:05:56;19.40;99.90
21744;DHT22;11034;48.556;9.342;2023-08-01T01:08:25;19.50;99.90
21744;DHT22;11034;48.556;9.342;2023-08-01T01:10:53;19.60;99.90
21744;DHT22;11034;48.556;9.342;2023-08-01T01:13:21;19.70;99.90
21744;DHT22;11034;48.556;9.342;2023-08-01T01:15:49;19.70;99.90
21744;DHT22;11034;48.556;9.342;2023-08-01T01:18:18;19.80;99.90
21744;DHT22;11034;48.556;9.342;2023-08-01T01:20:48;19.80;99.90
21744;DHT22;11034;48.556;9.342;2023-08-01T01:23:16;19.80;99.90
21744;DHT22;11034;48.556;9.342;2023-08-01T01:25:45;19.70;99.90
21744;DHT22;11034;48.556;9.342;2023-08-01T01:28:14;19.70;99.90
21744;DHT22;11034;48.556;9.342;2023-08-01T01:30:43;19.70;99.90
21744;DHT22;11034;48.556;9.342;2023-08-01T01:33:13;19.60;99.90
21744;DHT22;11034;48.556;9.342;2023-08-01T01:35:43;19.60;99.90
21744;DHT22;11034;48.556;9.342;2023-08-01T01:38:12;19.60;99.90
21744;DHT22;11034;48.556;9.342;2023-08-01T01:40:40;19.60;99.90
21744;DHT22;11034;48.556;9.342;2023-08-01T01:43:09;19.50;99.90
21744;DHT22;11034;48.556;9.342;2023-08-01T01:45:37;19.40;99.90
21744;DHT22;11034;48.556;9.342;2023-08-01T01:48:05;19.20;99.90
21744;DHT22;11034;48.556;9.342;2023-08-01T01:50:33;19.20;99.90
21744;DHT22;11034;48.556;9.342;2023-08-01T01:53:01;19.20;99.90
21744;DHT22;11034;48.556;9.342;2023-08-01T01:55:30;19.30;99.90
21744;DHT22;11034;48.556;9.342;2023-08-01T01:57:58;19.30;99.90
21744;DHT22;11034;48.556;9.342;2023-08-01T02:00:26;19.30;99.90
21744;DHT22;11034;48.556;9.342;2023-08-01T02:02:54;19.20;99.90
21744;DHT22;11034;48.556;9.342;2023-08-01T02:05:22;18.80;99.90
21744;DHT22;11034;48.556;9.342;2023-08-01T02:07:50;18.70;99.90
21744;DHT22;11034;48.556;9.342;2023-08-01T02:10:18;18.70;99.90
21744;DHT22;11034;48.556;9.342;2023-08-01T02:12:48;18.80;99.90
21744;DHT22;11034;48.556;9.342;2023-08-01T02:15:16;19.00;99.90
21744;DHT22;11034;48.556;9.342;2023-08-01T02:17:44;19.00;99.90
21744;DHT22;11034;48.556;9.342;2023-08-01T02:20:12;19.00;99.90
21744;DHT22;11034;48.556;9.342;2023-08-01T02:22:40;19.10;99.90
21744;DHT22;11034;48.556;9.342;2023-08-01T02:25:08;19.10;99.90
21744;DHT22;11034;48.556;9.342;2023-08-01T02:27:36;19.20;99.90
21744;DHT22;11034;48.556;9.342;2023-08-01T02:30:07;19.30;99.90
21744;DHT22;11034;48.556;9.342;2023-08-01T02:32:35;19.30;99.90
21744;DHT22;11034;48.556;9.342;2023-08-01T02:35:04;19.40;99.90
21744;DHT22;11034;48.556;9.342;2023-08-01T02:37:32;19.40;99.90
21744;DHT22;11034;48.556;9.342;2023-08-01T02:40:01;19.40;99.90
21744;DHT22;11034;48.556;9.342;2023-08-01T02:42:34;19.40;99.90
21744;DHT22;11034;48.556;9.342;2023-08-01T02:45:02;19.40;99.90
21744;DHT22;11034;48.556;9.342;2023-08-01T02:47:34;19.30;99.90
21744;DHT22;11034;48.556;9.342;2023-08-01T02:50:02;19.30;99.90
21744;DHT22;11034;48.556;9.342;2023-08-01T02:52:31;19.30;99.90
21744;DHT22;11034;48.556;9.342;2023-08-01T02:54:59;19.30;99.90
21744;DHT22;11034;48.556;9.342;2023-08-01T02:57:27;19.30;99.90
21744;DHT22;11034;48.556;9.342;2023-08-01T02:59:55;19.30;99.90
21744;DHT22;11034;48.556;9.342;2023-08-01T03:02:23;19.30;99.90
21744;DHT22;11034;48.556;9.342;2023-08-01T03:04:53;19.30;99.90
21744;DHT22;11034;48.556;9.342;2023-08-01T03:07:21;19.30;99.90
21744;DHT22;11034;48.556;9.342;2023-08-01T03:09:49;19.30;99.90
21744;DHT22;11034;48.556;9.342;2023-08-01T03:12:17;19.30;99.90
21744;DHT22;11034;48.556;9.342;2023-08-01T03:14:45;19.20;99.90
21744;DHT22;11034;48.556;9.342;2023-08-01T03:17:14;19.20;99.90
21744;DHT22;11034;48.556;9.342;2023-08-01T03:19:43;19.20;99.90
21744;DHT22;11034;48.556;9.342;2023-08-01T03:22:12;19.20;99.90
21744;DHT22;11034;48.556;9.342;2023-08-01T03:24:40;19.20;99.90
21744;DHT22;11034;48.556;9.342;2023-08-01T03:27:09;19.10;99.90
21744;DHT22;11034;48.556;9.342;2023-08-01T03:29:37;19.20;99.90
21744;DHT22;11034;48.556;9.342;2023-08-01T03:32:05;19.20;99.90
21744;DHT22;11034;48.556;9.342;2023-08-01T03:34:34;19.20;99.90
21744;DHT22;11034;48.556;9.342;2023-08-01T03:37:03;19.20;99.90
21744;DHT22;11034;48.556;9.342;2023-08-01T03:39:32;19.20;99.90
21744;DHT22;11034;48.556;9.342;2023-08-01T03:42:00;19.10;99.90
21744;DHT22;11034;48.556;9.342;2023-08-01T03:44:29;19.00;99.90
21744;DHT22;11034;48.556;9.342;2023-08-01T03:46:58;18.90;99.90
21744;DHT22;11034;48.556;9.342;2023-08-01T03:49:26;18.90;99.90
21744;DHT22;11034;48.556;9.342;2023-08-01T03:51:54;18.80;99.90
21744;DHT22;11034;48.556;9.342;2023-08-01T03:54:25;18.80;99.90
21744;DHT22;11034;48.556;9.342;2023-08-01T03:56:55;18.80;99.90
21744;DHT22;11034;48.556;9.342;2023-08-01T03:59:23;18.80;99.90
21744;DHT22;11034;48.556;9.342;2023-08-01T04:01:52;18.80;99.90
21744;DHT22;11034;48.556;9.342;2023-08-01T04:04:20;18.80;99.90
21744;DHT22;11034;48.556;9.342;2023-08-01T04:06:48;18.80;99.90
21744;DHT22;11034;48.556;9.342;2023-08-01T04:09:17;18.90;99.90
21744;DHT22;11034;48.556;9.342;2023-08-01T04:11:45;18.90;99.90
21744;DHT22;11034;48.556;9.342;2023-08-01T04:14:14;18.90;99.90
21744;DHT22;11034;48.556;9.342;2023-08-01T04:16:42;18.90;99.90
21744;DHT22;11034;48.556;9.342;2023-08-01T04:19:10;18.90;99.90
21744;DHT22;11034;48.556;9.342;2023-08-01T04:21:38;18.90;99.90
21744;DHT22;11034;48.556;9.342;2023-08-01T04:24:06;18.90;99.90
21744;DHT22;11034;48.556;9.342;2023-08-01T04:26:34;18.90;99.90
21744;DHT22;11034;48.556;9.342;2023-08-01T04:29:04;18.80;99.90
21744;DHT22;11034;48.556;9.342;2023-08-01T04:31:33;18.80;99.90
21744;DHT22;11034;48.556;9.342;2023-08-01T04:34:02;18.80;99.90
21744;DHT22;11034;48.556;9.342;2023-08-01T04:36:30;18.80;99.90
21744;DHT22;11034;48.556;9.342;2023-08-01T04:38:58;18.80;99.90
21744;DHT22;11034;48.556;9.342;2023-08-01T04:41:26;18.80;99.90
21744;DHT22;11034;48.556;9.342;2023-08-01T04:43:54;18.90;99.90
21744;DHT22;11034;48.556;9.342;2023-08-01T04:46:23;18.90;99.90
21744;DHT22;11034;48.556;9.342;2023-08-01T04:48:52;18.90;99.90
21744;DHT22;11034;48.556;9.342;2023-08-01T04:51:20;18.90;99.90
21744;DHT22;11034;48.556;9.342;2023-08-01T04:53:48;18.80;99.90
21744;DHT22;11034;48.556;9.342;2023-08-01T04:56:16;18.80;99.90
21744;DHT22;11034;48.556;9.342;2023-08-01T04:58:44;18.80;99.90
21744;DHT22;11034;48.556;9.342;2023-08-01T05:01:13;18.80;99.90
21744;DHT22;11034;48.556;9.342;2023-08-01T05:03:41;18.80;99.90
21744;DHT22;11034;48.556;9.342;2023-08-01T05:06:10;18.80;99.90
21744;DHT22;11034;48.556;9.342;2023-08-01T05:08:38;18.80;99.90
21744;DHT22;11034;48.556;9.342;2023-08-01T05:11:06;18.90;99.90
21744;DHT22;11034;48.556;9.342;2023-08-01T05:13:34;19.00;99.90
21744;DHT22;11034;48.556;9.342;2023-08-01T05:16:03;19.00;99.90
21744;DHT22;11034;48.556;9.342;2023-08-01T05:18:31;19.10;99.90
21744;DHT22;11034;48.556;9.342;2023-08-01T05:20:59;19.10;99.90
21744;DHT22;11034;48.556;9.342;2023-08-01T05:23:31;19.10;99.90
21744;DHT22;11034;48.556;9.342;2023-08-01T05:25:59;19.20;99.90
21744;DHT22;11034;48.556;9.342;2023-08-01T05:28:27;19.20;99.90
21744;DHT22;11034;48.556;9.342;2023-08-01T05:30:59;19.30;99.90
21744;DHT22;11034;48.556;9.342;2023-08-01T05:33:27;19.30;99.90
21744;DHT22;11034;48.556;9.342;2023-08-01T05:35:55;19.30;99.90
21744;DHT22;11034;48.556;9.342;2023-08-01T05:38:23;19.30;99.90
21744;DHT22;11034;48.556;9.342;2023-08-01T05:40:52;19.30;99.90
21744;DHT22;11034;48.556;9.342;2023-08-01T05:43:20;19.30;99.90
21744;DHT22;11034;48.556;9.342;2023-08-01T05:45:48;19.30;99.90
21744;DHT22;11034;48.556;9.342;2023-08-01T05:48:19;19.40;99.90
21744;DHT22;11034;48.556;9.342;2023-08-01T05:50:47;19.30;99.90
21744;DHT22;11034;48.556;9.342;2023-08-01T05:53:26;19.40;99.90
21744;DHT22;11034;48.556;9.342;2023-08-01T05:55:58;19.40;99.90
21744;DHT22;11034;48.556;9.342;2023-08-01T05:58:27;19.60;99.90
21744;DHT22;11034;48.556;9.342;2023-08-01T06:00:55;19.60;99.90
21744;DHT22;11034;48.556;9.342;2023-08-01T06:03:23;19.70;99.90
21744;DHT22;11034;48.556;9.342;2023-08-01T06:05:52;19.70;99.90
21744;DHT22;11034;48.556;9.342;2023-08-01T06:08:20;19.70;99.90
21744;DHT22;11034;48.556;9.342;2023-08-01T06:10:48;19.70;99.90
21744;DHT22;11034;48.556;9.342;2023-08-01T06:13:17;19.60;99.90
21744;DHT22;11034;48.556;9.342;2023-08-01T06:15:46;19.50;99.90
21744;DHT22;11034;48.556;9.342;2023-08-01T06:18:15;19.40;99.90
21744;DHT22;11034;48.556;9.342;2023-08-01T06:20:46;19.30;99.90
21744;DHT22;11034;48.556;9.342;2023-08-01T06:23:14;19.20;99.90
21744;DHT22;11034;48.556;9.342;2023-08-01T06:25:42;19.20;99.90
21744;DHT22;11034;48.556;9.342;2023-08-01T06:28:10;19.10;99.90
21744;DHT22;11034;48.556;9.342;2023-08-01T06:30:40;19.10;99.90
21744;DHT22;11034;48.556;9.342;2023-08-01T06:33:08;19.00;99.90
21744;DHT22;11034;48.556;9.342;2023-08-01T06:35:37;19.00;99.90
21744;DHT22;11034;48.556;9.342;2023-08-01T06:38:05;19.00;99.90
21744;DHT22;11034;48.556;9.342;2023-08-01T06:40:33;19.00;99.90
21744;DHT22;11034;48.556;9.342;2023-08-01T06:43:01;19.00;99.90
21744;DHT22;11034;48.556;9.342;2023-08-01T06:45:29;19.00;99.90
21744;DHT22;11034;48.556;9.342;2023-08-01T06:47:59;19.00;99.90
21744;DHT22;11034;48.556;9.342;2023-08-01T06:50:27;18.90;99.90
21744;DHT22;11034;48.556;9.342;2023-08-01T06:52:56;18.90;99.90
21744;DHT22;11034;48.556;9.342;2023-08-01T06:55:24;19.00;99.90
21744;DHT22;11034;48.556;9.342;2023-08-01T06:57:52;18.90;99.90
21744;DHT22;11034;48.556;9.342;2023-08-01T07:00:21;18.90;99.90
21744;DHT22;11034;48.556;9.342;2023-08-01T07:02:50;18.90;99.90
21744;DHT22;11034;48.556;9.342;2023-08-01T07:05:20;18.90;99.90
21744;DHT22;11034;48.556;9.342;2023-08-01T07:07:51;18.90;99.90
21744;DHT22;11034;48.556;9.342;2023-08-01T07:10:19;18.90;99.90
21744;DHT22;11034;48.556;9.342;2023-08-01T07:12:47;18.90;99.90
21744;DHT22;11034;48.556;9.342;2023-08-01T07:15:16;19.00;99.90
21744;DHT22;11034;48.556;9.342;2023-08-01T07:17:46;19.00;99.90
21744;DHT22;11034;48.556;9.342;2023-08-01T07:20:14;19.00;99.90
21744;DHT22;11034;48.556;9.342;2023-08-01T07:22:44;18.90;99.90
21744;DHT22;11034;48.556;9.342;2023-08-01T07:25:12;18.80;99.90
21744;DHT22;11034;48.556;9.342;2023-08-01T07:27:40;18.70;99.90
21744;DHT22;11034;48.556;9.342;2023-08-01T07:30:09;18.60;99.90
21744;DHT22;11034;48.556;9.342;2023-08-01T07:32:37;18.70;99.90
21744;DHT22;11034;48.556;9.342;2023-08-01T07:35:06;18.70;99.90
21744;DHT22;11034;48.556;9.342;2023-08-01T07:37:37;18.90;99.90
21744;DHT22;11034;48.556;9.342;2023-08-01T07:40:08;19.10;99.90
21744;DHT22;11034;48.556;9.342;2023-08-01T07:42:38;19.30;99.90
21744;DHT22;11034;48.556;9.342;2023-08-01T07:45:13;19.30;99.90
21744;DHT22;11034;48.556;9.342;2023-08-01T07:47:43;19.40;99.90
21744;DHT22;11034;48.556;9.342;2023-08-01T07:50:11;19.30;99.90
21744;DHT22;11034;48.556;9.342;2023-08-01T07:52:41;19.30;99.90
21744;DHT22;11034;48.556;9.342;2023-08-01T07:55:15;19.30;99.90
21744;DHT22;11034;48.556;9.342;2023-08-01T07:57:43;19.10;99.90
21744;DHT22;11034;48.556;9.342;2023-08-01T08:00:12;19.00;99.90
21744;DHT22;11034;48.556;9.342;2023-08-01T08:02:41;18.80;99.90
21744;DHT22;11034;48.556;9.342;2023-08-01T08:05:09;18.60;99.90
21744;DHT22;11034;48.556;9.342;2023-08-01T08:07:38;18.40;99.90
21744;DHT22;11034;48.556;9.342;2023-08-01T08:10:07;18.20;99.90
21744;DHT22;11034;48.556;9.342;2023-08-01T08:12:36;17.90;99.90
21744;DHT22;11034;48.556;9.342;2023-08-01T08:15:05;17.60;99.90
21744;DHT22;11034;48.556;9.342;2023-08-01T08:17:34;17.30;99.90
21744;DHT22;11034;48.556;9.342;2023-08-01T08:20:03;17.00;99.90
21744;DHT22;11034;48.556;9.342;2023-08-01T08:22:33;16.80;99.90
21744;DHT22;11034;48.556;9.342;2023-08-01T08:25:01;16.40;99.90
21744;DHT22;11034;48.556;9.342;2023-08-01T08:27:29;16.20;99.90
21744;DHT22;11034;48.556;9.342;2023-08-01T08:29:58;16.00;99.90
21744;DHT22;11034;48.556;9.342;2023-08-01T08:32:27;15.90;99.90
21744;DHT22;11034;48.556;9.342;2023-08-01T08:34:55;15.90;99.90
21744;DHT22;11034;48.556;9.342;2023-08-01T08:37:23;15.90;99.90
21744;DHT22;11034;48.556;9.342;2023-08-01T08:39:51;15.90;99.90
21744;DHT22;11034;48.556;9.342;2023-08-01T08:42:19;16.00;99.90
21744;DHT22;11034;48.556;9.342;2023-08-01T08:44:50;16.10;99.90
21744;DHT22;11034;48.556;9.342;2023-08-01T08:47:25;16.20;99.90
21744;DHT22;11034;48.556;9.342;2023-08-01T08:49:55;16.30;99.90
21744;DHT22;11034;48.556;9.342;2023-08-01T08:52:24;16.20;99.90
21744;DHT22;11034;48.556;9.342;2023-08-01T08:54:53;16.30;99.90
21744;DHT22;11034;48.556;9.342;2023-08-01T08:57:22;16.30;99.90
21744;DHT22;11034;48.556;9.342;2023-08-01T08:59:55;16.50;99.90
21744;DHT22;11034;48.556;9.342;2023-08-01T09:02:25;16.50;99.90
21744;DHT22;11034;48.556;9.342;2023-08-01T09:04:54;16.50;99.90
21744;DHT22;11034;48.556;9.342;2023-08-01T09:07:24;16.50;99.90
21744;DHT22;11034;48.556;9.342;2023-08-01T09:09:57;16.70;99.90
21744;DHT22;11034;48.556;9.342;2023-08-01T09:12:27;16.70;99.90
21744;DHT22;11034;48.556;9.342;2023-08-01T09:14:56;16.80;99.90
21744;DHT22;11034;48.556;9.342;2023-08-01T09:17:27;16.80;99.90
21744;DHT22;11034;48.556;9.342;2023-08-01T09:20:03;16.90;99.90
21744;DHT22;11034;48.556;9.342;2023-08-01T09:22:41;17.00;99.90
21744;DHT22;11034;48.556;9.342;2023-08-01T09:25:10;17.00;99.90
21744;DHT22;11034;48.556;9.342;2023-08-01T09:27:38;17.10;99.90
21744;DHT22;11034;48.556;9.342;2023-08-01T09:30:09;17.20;99.90
21744;DHT22;11034;48.556;9.342;2023-08-01T09:32:39;17.20;99.90
21744;DHT22;11034;48.556;9.342;2023-08-01T09:35:07;17.30;99.90
21744;DHT22;11034;48.556;9.342;2023-08-01T09:37:40;17.50;99.90
21744;DHT22;11034;48.556;9.342;2023-08-01T09:40:10;17.80;99.90
21744;DHT22;11034;48.556;9.342;2023-08-01T09:42:39;18.00;99.90
21744;DHT22;11034;48.556;9.342;2023-08-01T09:45:12;18.20;99.90
21744;DHT22;11034;48.556;9.342;2023-08-01T09:47:43;18.30;99.90
21744;DHT22;11034;48.556;9.342;2023-08-01T09:50:20;18.20;99.90
21744;DHT22;11034;48.556;9.342;2023-08-01T09:52:49;18.10;99.90
21744;DHT22;11034;48.556;9.342;2023-08-01T09:55:25;17.80;99.90
21744;DHT22;11034;48.556;9.342;2023-08-01T09:57:57;17.70;99.90
21744;DHT22;11034;48.556;9.342;2023-08-01T10:00:26;17.50;99.90
21744;DHT22;11034;48.556;9.342;2023-08-01T10:03:00;17.50;99.90
21744;DHT22;11034;48.556;9.342;2023-08-01T10:05:30;17.50;99.90
21744;DHT22;11034;48.556;9.342;2023-08-01T10:08:00;17.60;99.90
21744;DHT22;11034;48.556;9.342;2023-08-01T10:10:28;17.50;99.90
21744;DHT22;11034;48.556;9.342;2023-08-01T10:12:57;17.50;99.90
21744;DHT22;11034;48.556;9.342;2023-08-01T10:15:25;17.50;99.90
21744;DHT22;11034;48.556;9.342;2023-08-01T10:18:12;17.50;99.90
21744;DHT22;11034;48.556;9.342;2023-08-01T10:20:42;17.60;99.90
21744;DHT22;11034;48.556;9.342;2023-08-01T10:23:13;17.60;99.90
21744;DHT22;11034;48.556;9.342;2023-08-01T10:25:42;17.60;99.90
21744;DHT22;11034;48.556;9.342;2023-08-01T10:28:13;17.60;99.90
21744;DHT22;11034;48.556;9.342;2023-08-01T10:30:43;17.60;99.90
21744;DHT22;11034;48.556;9.342;2023-08-01T10:33:12;17.50;99.90
21744;DHT22;11034;48.556;9.342;2023-08-01T10:35:40;17.50;99.90
21744;DHT22;11034;48.556;9.342;2023-08-01T10:38:10;17.60;99.90
21744;DHT22;11034;48.556;9.342;2023-08-01T10:40:40;17.60;99.90
21744;DHT22;11034;48.556;9.342;2023-08-01T10:43:19;17.60;99.90
21744;DHT22;11034;48.556;9.342;2023-08-01T10:45:48;17.50;99.90
21744;DHT22;11034;48.556;9.342;2023-08-01T10:48:20;17.50;99.90
21744;DHT22;11034;48.556;9.342;2023-08-01T10:50:54;17.40;99.90
21744;DHT22;11034;48.556;9.342;2023-08-01T10:53:23;17.70;99.90
21744;DHT22;11034;48.556;9.342;2023-08-01T10:55:52;18.10;99.90
21744;DHT22;11034;48.556;9.342;2023-08-01T10:58:26;18.50;99.90
21744;DHT22;11034;48.556;9.342;2023-08-01T11:00:57;19.10;99.90
21744;DHT22;11034;48.556;9.342;2023-08-01T11:03:35;19.70;99.90
21744;DHT22;11034;48.556;9.342;2023-08-01T11:06:03;19.80;99.90
21744;DHT22;11034;48.556;9.342;2023-08-01T11:08:35;19.90;99.90
21744;DHT22;11034;48.556;9.342;2023-08-01T11:11:05;19.60;99.90
21744;DHT22;11034;48.556;9.342;2023-08-01T11:13:34;19.60;99.90
21744;DHT22;11034;48.556;9.342;2023-08-01T11:16:03;19.70;99.90
21744;DHT22;11034;48.556;9.342;2023-08-01T11:18:42;19.40;99.90
21744;DHT22;11034;48.556;9.342;2023-08-01T11:21:10;19.30;99.90
21744;DHT22;11034;48.556;9.342;2023-08-01T11:23:38;19.40;99.90
21744;DHT22;11034;48.556;9.342;2023-08-01T11:26:07;19.40;99.90
21744;DHT22;11034;48.556;9.342;2023-08-01T11:28:36;19.80;99.90
21744;DHT22;11034;48.556;9.342;2023-08-01T11:31:10;20.20;99.90
21744;DHT22;11034;48.556;9.342;2023-08-01T11:33:41;20.60;99.90
21744;DHT22;11034;48.556;9.342;2023-08-01T11:36:09;21.10;99.90
21744;DHT22;11034;48.556;9.342;2023-08-01T11:38:37;21.10;99.90
21744;DHT22;11034;48.556;9.342;2023-08-01T11:41:06;21.20;99.90
21744;DHT22;11034;48.556;9.342;2023-08-01T11:43:41;21.20;99.90
21744;DHT22;11034;48.556;9.342;2023-08-01T11:46:09;21.30;99.90
21744;DHT22;11034;48.556;9.342;2023-08-01T11:48:46;21.20;99.90
21744;DHT22;11034;48.556;9.342;2023-08-01T11:51:14;21.20;99.90
21744;DHT22;11034;48.556;9.342;2023-08-01T11:53:42;21.30;99.90
21744;DHT22;11034;48.556;9.342;2023-08-01T11:56:20;21.00;99.90
21744;DHT22;11034;48.556;9.342;2023-08-01T11:58:48;20.70;99.90
21744;DHT22;11034;48.556;9.342;2023-08-01T12:01:16;20.60;99.90
21744;DHT22;11034;48.556;9.342;2023-08-01T12:03:47;21.00;99.90
21744;DHT22;11034;48.556;9.342;2023-08-01T12:06:16;21.10;99.90
21744;DHT22;11034;48.556;9.342;2023-08-01T12:08:46;21.60;99.90
21744;DHT22;11034;48.556;9.342;2023-08-01T12:11:18;21.80;99.90
21744;DHT22;11034;48.556;9.342;2023-08-01T12:13:47;21.90;99.90
21744;DHT22;11034;48.556;9.342;2023-08-01T12:16:15;21.70;99.90
21744;DHT22;11034;48.556;9.342;2023-08-01T12:18:48;21.40;99.90
21744;DHT22;11034;48.556;9.342;2023-08-01T12:21:26;21.30;99.90
21744;DHT22;11034;48.556;9.342;2023-08-01T12:23:54;21.50;99.90
21744;DHT22;11034;48.556;9.342;2023-08-01T12:26:22;21.40;99.90
21744;DHT22;11034;48.556;9.342;2023-08-01T12:28:51;21.40;99.90
21744;DHT22;11034;48.556;9.342;2023-08-01T12:31:20;21.30;99.90
21744;DHT22;11034;48.556;9.342;2023-08-01T12:33:50;21.20;99.90
21744;DHT22;11034;48.556;9.342;2023-08-01T12:36:19;21.50;99.90
21744;DHT22;11034;48.556;9.342;2023-08-01T12:38:47;21.60;99.90
21744;DHT22;11034;48.556;9.342;2023-08-01T12:41:15;21.50;99.90
21744;DHT22;11034;48.556;9.342;2023-08-01T12:43:43;21.60;99.90
21744;DHT22;11034;48.556;9.342;2023-08-01T12:46:11;21.70;99.90
21744;DHT22;11034;48.556;9.342;2023-08-01T12:48:39;21.40;99.90
21744;DHT22;11034;48.556;9.342;2023-08-01T12:51:09;21.20;99.90
21744;DHT22;11034;48.556;9.342;2023-08-01T12:53:37;21.40;99.90
21744;DHT22;11034;48.556;9.342;2023-08-01T12:56:07;21.50;99.90
21744;DHT22;11034;48.556;9.342;2023-08-01T12:58:35;21.60;99.90
21744;DHT22;11034;48.556;9.342;2023-08-01T13:01:07;21.30;99.90
21744;DHT22;11034;48.556;9.342;2023-08-01T13:03:35;21.00;99.90
21744;DHT22;11034;48.556;9.342;2023-08-01T13:06:03;20.70;99.90
21744;DHT22;11034;48.556;9.342;2023-08-01T13:08:33;20.60;99.90
21744;DHT22;11034;48.556;9.342;2023-08-01T13:11:01;20.70;99.90
21744;DHT22;11034;48.556;9.342;2023-08-01T13:13:36;20.70;99.90
21744;DHT22;11034;48.556;9.342;2023-08-01T13:16:04;20.90;99.90
21744;DHT22;11034;48.556;9.342;2023-08-01T13:18:32;21.00;99.90
21744;DHT22;11034;48.556;9.342;2023-08-01T13:21:01;21.10;99.90
21744;DHT22;11034;48.556;9.342;2023-08-01T13:23:29;21.50;99.90
21744;DHT22;11034;48.556;9.342;2023-08-01T13:25:58;21.70;99.90
21744;DHT22;11034;48.556;9.342;2023-08-01T13:28:28;21.80;99.90
21744;DHT22;11034;48.556;9.342;2023-08-01T13:30:56;21.90;99.90
21744;DHT22;11034;48.556;9.342;2023-08-01T13:33:24;22.00;99.90
21744;DHT22;11034;48.556;9.342;2023-08-01T13:35:53;22.20;99.90
21744;DHT22;11034;48.556;9.342;2023-08-01T13:38:21;22.10;99.90
21744;DHT22;11034;48.556;9.342;2023-08-01T13:40:49;22.10;99.90
21744;DHT22;11034;48.556;9.342;2023-08-01T13:43:18;22.00;99.90
21744;DHT22;11034;48.556;9.342;2023-08-01T13:45:46;21.90;99.90
21744;DHT22;11034;48.556;9.342;2023-08-01T13:48:14;21.90;99.90
21744;DHT22;11034;48.556;9.342;2023-08-01T13:50:42;21.90;99.90
21744;DHT22;11034;48.556;9.342;2023-08-01T13:53:10;21.90;99.90
21744;DHT22;11034;48.556;9.342;2023-08-01T13:55:40;22.10;99.90
21744;DHT22;11034;48.556;9.342;2023-08-01T13:58:08;22.10;99.90
21744;DHT22;11034;48.556;9.342;2023-08-01T14:00:38;22.20;99.90
21744;DHT22;11034;48.556;9.342;2023-08-01T14:03:06;22.30;99.90
21744;DHT22;11034;48.556;9.342;2023-08-01T14:05:34;22.20;99.90
21744;DHT22;11034;48.556;9.342;2023-08-01T14:08:02;22.20;99.90
21744;DHT22;11034;48.556;9.342;2023-08-01T14:10:30;22.20;99.90
21744;DHT22;11034;48.556;9.342;2023-08-01T14:12:58;22.40;99.90
21744;DHT22;11034;48.556;9.342;2023-08-01T14:15:26;22.50;99.90
21744;DHT22;11034;48.556;9.342;2023-08-01T14:17:56;22.40;99.90
21744;DHT22;11034;48.556;9.342;2023-08-01T14:20:24;22.40;99.90
21744;DHT22;11034;48.556;9.342;2023-08-01T14:22:52;22.50;99.90
21744;DHT22;11034;48.556;9.342;2023-08-01T14:25:20;22.50;99.90
21744;DHT22;11034;48.556;9.342;2023-08-01T14:27:48;22.60;99.90
21744;DHT22;11034;48.556;9.342;2023-08-01T14:30:16;22.50;99.90
21744;DHT22;11034;48.556;9.342;2023-08-01T14:32:44;22.40;99.90
21744;DHT22;11034;48.556;9.342;2023-08-01T14:35:14;22.40;99.90
21744;DHT22;11034;48.556;9.342;2023-08-01T14:37:42;22.80;99.90
21744;DHT22;11034;48.556;9.342;2023-08-01T14:40:15;22.90;99.90
21744;DHT22;11034;48.556;9.342;2023-08-01T14:42:43;22.90;99.90
21744;DHT22;11034;48.556;9.342;2023-08-01T14:45:11;23.20;99.90
21744;DHT22;11034;48.556;9.342;2023-08-01T14:47:39;23.30;99.90
21744;DHT22;11034;48.556;9.342;2023-08-01T14:50:09;23.20;99.90
21744;DHT22;11034;48.556;9.342;2023-08-01T14:52:40;23.10;99.90
21744;DHT22;11034;48.556;9.342;2023-08-01T14:55:08;23.00;99.90
21744;DHT22;11034;48.556;9.342;2023-08-01T14:57:36;22.80;99.90
21744;DHT22;11034;48.556;9.342;2023-08-01T15:00:05;22.80;99.90
21744;DHT22;11034;48.556;9.342;2023-08-01T15:02:34;22.80;99.90
21744;DHT22;11034;48.556;9.342;2023-08-01T15:05:02;22.80;99.90
21744;DHT22;11034;48.556;9.342;2023-08-01T15:07:30;22.50;99.90
21744;DHT22;11034;48.556;9.342;2023-08-01T15:10:00;22.50;99.90
21744;DHT22;11034;48.556;9.342;2023-08-01T15:12:28;22.40;99.90
21744;DHT22;11034;48.556;9.342;2023-08-01T15:14:56;22.40;99.90
21744;DHT22;11034;48.556;9.342;2023-08-01T15:17:24;22.20;99.90
21744;DHT22;11034;48.556;9.342;2023-08-01T15:19:52;22.20;99.90
21744;DHT22;11034;48.556;9.342;2023-08-01T15:22:21;22.10;99.90
21744;DHT22;11034;48.556;9.342;2023-08-01T15:24:49;21.90;99.90
21744;DHT22;11034;48.556;9.342;2023-08-01T15:27:18;21.90;99.90
21744;DHT22;11034;48.556;9.342;2023-08-01T15:29:46;21.70;99.90
21744;DHT22;11034;48.556;9.342;2023-08-01T15:32:14;21.70;99.90
21744;DHT22;11034;48.556;9.342;2023-08-01T15:34:43;21.80;99.90
21744;DHT22;11034;48.556;9.342;2023-08-01T15:37:11;22.10;99.90
21744;DHT22;11034;48.556;9.342;2023-08-01T15:39:39;22.30;99.90
21744;DHT22;11034;48.556;9.342;2023-08-01T15:42:07;22.30;99.90